sensor_id;sensor_type;location;lat;lon;timestamp;pressure;altitude;pressure_sealevel;temperature;humidity
6393;BME280;3229;42.674;23.282;2023-12-20T00:02:18;94972.56;;;6.16;72.24
6393;BME280;3229;42.674;23.282;2023-12-20T00:04:45;94956.84;;;6.11;72.26
6393;BME280;3229;42.674;23.282;2023-12-20T00:07:12;94958.38;;;6.14;72.14
6393;BME280;3229;42.674;23.282;2023-12-20T00:09:38;94955.84;;;6.14;72.38
6393;BME280;3229;42.674;23.282;2023-12-20T00:12:06;94944.28;;;6.10;72.22
6393;BME280;3229;42.674;23.282;2023-12-20T00:14:32;94948.31;;;6.12;72.35
6393;BME280;3229;42.674;23.282;2023-12-20T00:17:00;94944.88;;;6.13;72.33
6393;BME280;3229;42.674;23.282;2023-12-20T00:19:27;94934.44;;;6.05;72.47
6393;BME280;3229;42.674;23.282;2023-12-20T00:21:54;94942.41;;;6.12;72.38
6393;BME280;3229;42.674;23.282;2023-12-20T00:24:21;94942.41;;;6.12;72.43
6393;BME280;3229;42.674;23.282;2023-12-20T00:26:47;94934.00;;;6.11;72.31
6393;BME280;3229;42.674;23.282;2023-12-20T00:29:14;94924.16;;;6.07;72.57
6393;BME280;3229;42.674;23.282;2023-12-20T00:31:41;94929.03;;;6.10;72.23
6393;BME280;3229;42.674;23.282;2023-12-20T00:34:09;94913.81;;;6.10;72.36
6393;BME280;3229;42.674;23.282;2023-12-20T00:36:36;94900.09;;;5.99;72.43
6393;BME280;3229;42.674;23.282;2023-12-20T00:39:03;94910.53;;;6.08;72.29
6393;BME280;3229;42.674;23.282;2023-12-20T00:41:30;94904.06;;;6.03;72.44
6393;BME280;3229;42.674;23.282;2023-12-20T00:43:56;94824.63;;;5.52;72.17
6393;BME280;3229;42.674;23.282;2023-12-20T00:46:23;94898.16;;;6.03;72.32
6393;BME280;3229;42.674;23.282;2023-12-20T00:48:50;94905.47;;;6.08;72.30
6393;BME280;3229;42.674;23.282;2023-12-20T00:51:18;94904.78;;;6.06;72.54
6393;BME280;3229;42.674;23.282;2023-12-20T00:53:45;94900.69;;;6.03;72.51
6393;BME280;3229;42.674;23.282;2023-12-20T00:56:14;94859.09;;;5.80;72.45
6393;BME280;3229;42.674;23.282;2023-12-20T00:58:41;94895.53;;;6.05;72.45
6393;BME280;3229;42.674;23.282;2023-12-20T01:01:08;94899.78;;;6.04;72.50
6393;BME280;3229;42.674;23.282;2023-12-20T01:03:34;94889.63;;;6.04;72.36
6393;BME280;3229;42.674;23.282;2023-12-20T01:06:01;94884.47;;;6.06;72.44
6393;BME280;3229;42.674;23.282;2023-12-20T01:08:31;94876.94;;;6.04;72.49
6393;BME280;3229;42.674;23.282;2023-12-20T01:10:59;94882.94;;;6.03;72.47
6393;BME280;3229;42.674;23.282;2023-12-20T01:13:26;94875.44;;;6.01;72.68
6393;BME280;3229;42.674;23.282;2023-12-20T01:15:53;94866.28;;;5.99;72.42
6393;BME280;3229;42.674;23.282;2023-12-20T01:18:20;94877.97;;;6.01;72.59
6393;BME280;3229;42.674;23.282;2023-12-20T01:20:47;94874.63;;;6.01;72.47
6393;BME280;3229;42.674;23.282;2023-12-20T01:23:14;94874.72;;;5.99;72.50
6393;BME280;3229;42.674;23.282;2023-12-20T01:25:42;94869.56;;;6.01;72.50
6393;BME280;3229;42.674;23.282;2023-12-20T01:28:09;94867.09;;;5.99;72.59
6393;BME280;3229;42.674;23.282;2023-12-20T01:30:36;94850.47;;;5.95;72.52
6393;BME280;3229;42.674;23.282;2023-12-20T01:33:03;94852.91;;;5.97;72.40
6393;BME280;3229;42.674;23.282;2023-12-20T01:35:29;94853.84;;;5.96;72.52
6393;BME280;3229;42.674;23.282;2023-12-20T01:37:56;94852.91;;;5.97;72.33
6393;BME280;3229;42.674;23.282;2023-12-20T01:40:23;94845.50;;;5.94;72.38
6393;BME280;3229;42.674;23.282;2023-12-20T01:42:59;94807.16;;;5.73;72.38
6393;BME280;3229;42.674;23.282;2023-12-20T01:45:26;94833.72;;;5.93;72.42
6393;BME280;3229;42.674;23.282;2023-12-20T01:47:53;94838.81;;;5.93;72.38
6393;BME280;3229;42.674;23.282;2023-12-20T01:50:20;94828.72;;;5.91;72.31
6393;BME280;3229;42.674;23.282;2023-12-20T01:52:47;94835.47;;;5.92;72.52
6393;BME280;3229;42.674;23.282;2023-12-20T01:55:17;94823.75;;;5.90;72.28
6393;BME280;3229;42.674;23.282;2023-12-20T01:57:45;94822.13;;;5.89;72.38
6393;BME280;3229;42.674;23.282;2023-12-20T02:00:15;94817.88;;;5.89;72.31
6393;BME280;3229;42.674;23.282;2023-12-20T02:02:43;94822.13;;;5.89;72.39
6393;BME280;3229;42.674;23.282;2023-12-20T02:05:12;94821.41;;;5.87;72.31
6393;BME280;3229;42.674;23.282;2023-12-20T02:07:39;94818.06;;;5.86;72.43
6393;BME280;3229;42.674;23.282;2023-12-20T02:10:07;94812.19;;;5.86;72.31
6393;BME280;3229;42.674;23.282;2023-12-20T02:12:34;94806.31;;;5.85;72.32
6393;BME280;3229;42.674;23.282;2023-12-20T02:15:00;94804.91;;;5.81;72.23
6393;BME280;3229;42.674;23.282;2023-12-20T02:17:29;94799.63;;;5.84;72.28
6393;BME280;3229;42.674;23.282;2023-12-20T02:19:57;94801.34;;;5.84;72.27
6393;BME280;3229;42.674;23.282;2023-12-20T02:22:25;94797.16;;;5.83;72.34
6393;BME280;3229;42.674;23.282;2023-12-20T02:24:51;94792.22;;;5.81;72.35
6393;BME280;3229;42.674;23.282;2023-12-20T02:27:19;94798.09;;;5.82;72.32
6393;BME280;3229;42.674;23.282;2023-12-20T02:29:47;94784.22;;;5.74;72.05
6393;BME280;3229;42.674;23.282;2023-12-20T02:32:14;94774.97;;;5.73;72.01
6393;BME280;3229;42.674;23.282;2023-12-20T02:34:41;94786.44;;;5.79;72.23
6393;BME280;3229;42.674;23.282;2023-12-20T02:37:07;94778.00;;;5.78;72.28
6393;BME280;3229;42.674;23.282;2023-12-20T02:39:36;94776.28;;;5.79;72.27
6393;BME280;3229;42.674;23.282;2023-12-20T02:42:03;94771.31;;;5.77;72.21
6393;BME280;3229;42.674;23.282;2023-12-20T02:44:30;94773.25;;;5.74;72.09
6393;BME280;3229;42.674;23.282;2023-12-20T02:46:56;94770.13;;;5.70;72.25
6393;BME280;3229;42.674;23.282;2023-12-20T02:49:23;94770.63;;;5.75;72.14
6393;BME280;3229;42.674;23.282;2023-12-20T02:51:50;94775.78;;;5.74;72.22
6393;BME280;3229;42.674;23.282;2023-12-20T02:54:17;94770.69;;;5.74;72.07
6393;BME280;3229;42.674;23.282;2023-12-20T02:56:45;94771.63;;;5.73;72.17
6393;BME280;3229;42.674;23.282;2023-12-20T02:59:12;94772.56;;;5.72;72.19
6393;BME280;3229;42.674;23.282;2023-12-20T03:01:41;94775.09;;;5.72;72.27
6393;BME280;3229;42.674;23.282;2023-12-20T03:04:08;94767.78;;;5.67;72.13
6393;BME280;3229;42.674;23.282;2023-12-20T03:06:35;94749.63;;;5.61;72.30
6393;BME280;3229;42.674;23.282;2023-12-20T03:09:02;94765.94;;;5.69;72.11
6393;BME280;3229;42.674;23.282;2023-12-20T03:11:29;94767.69;;;5.69;72.05
6393;BME280;3229;42.674;23.282;2023-12-20T03:13:57;94766.88;;;5.68;72.06
6393;BME280;3229;42.674;23.282;2023-12-20T03:16:24;94762.72;;;5.67;72.13
6393;BME280;3229;42.674;23.282;2023-12-20T03:18:51;94762.72;;;5.67;72.07
6393;BME280;3229;42.674;23.282;2023-12-20T03:21:18;94761.09;;;5.66;72.07
6393;BME280;3229;42.674;23.282;2023-12-20T03:23:45;94755.22;;;5.66;71.96
6393;BME280;3229;42.674;23.282;2023-12-20T03:26:11;94757.75;;;5.66;72.15
6393;BME280;3229;42.674;23.282;2023-12-20T03:28:38;94753.69;;;5.63;72.06
6393;BME280;3229;42.674;23.282;2023-12-20T03:31:06;94753.69;;;5.63;72.06
6393;BME280;3229;42.674;23.282;2023-12-20T03:33:33;94743.66;;;5.62;72.21
6393;BME280;3229;42.674;23.282;2023-12-20T03:36:00;94749.63;;;5.61;71.99
6393;BME280;3229;42.674;23.282;2023-12-20T03:38:27;94742.94;;;5.60;72.07
6393;BME280;3229;42.674;23.282;2023-12-20T03:40:53;94741.34;;;5.59;72.12
6393;BME280;3229;42.674;23.282;2023-12-20T03:43:20;94703.06;;;5.38;71.99
6393;BME280;3229;42.674;23.282;2023-12-20T03:45:47;94744.81;;;5.58;72.09
6393;BME280;3229;42.674;23.282;2023-12-20T03:48:15;94743.16;;;5.57;72.03
6393;BME280;3229;42.674;23.282;2023-12-20T03:50:42;94745.69;;;5.57;71.98
6393;BME280;3229;42.674;23.282;2023-12-20T03:53:08;94745.81;;;5.55;72.28
6393;BME280;3229;42.674;23.282;2023-12-20T03:55:35;94739.13;;;5.54;72.05
6393;BME280;3229;42.674;23.282;2023-12-20T03:58:02;94739.13;;;5.54;72.09
6393;BME280;3229;42.674;23.282;2023-12-20T04:00:29;94735.78;;;5.53;72.13
6393;BME280;3229;42.674;23.282;2023-12-20T04:02:56;94721.69;;;5.49;71.67
6393;BME280;3229;42.674;23.282;2023-12-20T04:05:24;94719.16;;;5.49;71.87
6393;BME280;3229;42.674;23.282;2023-12-20T04:07:50;94724.31;;;5.48;72.05
6393;BME280;3229;42.674;23.282;2023-12-20T04:10:17;94719.97;;;5.50;72.03
6393;BME280;3229;42.674;23.282;2023-12-20T04:12:44;94716.63;;;5.49;71.99
6393;BME280;3229;42.674;23.282;2023-12-20T04:15:11;94711.06;;;5.44;71.86
6393;BME280;3229;42.674;23.282;2023-12-20T04:17:37;94706.69;;;5.46;72.01
6393;BME280;3229;42.674;23.282;2023-12-20T04:20:05;94716.81;;;5.46;72.00
6393;BME280;3229;42.674;23.282;2023-12-20T04:22:33;94709.22;;;5.46;71.90
6393;BME280;3229;42.674;23.282;2023-12-20T04:25:00;94703.44;;;5.44;71.96
6393;BME280;3229;42.674;23.282;2023-12-20T04:27:27;94704.56;;;5.40;71.90
6393;BME280;3229;42.674;23.282;2023-12-20T04:29:54;94708.53;;;5.44;71.83
6393;BME280;3229;42.674;23.282;2023-12-20T04:32:20;94699.38;;;5.42;72.05
6393;BME280;3229;42.674;23.282;2023-12-20T04:34:47;94698.59;;;5.41;71.71
6393;BME280;3229;42.674;23.282;2023-12-20T04:37:14;94698.69;;;5.40;71.91
6393;BME280;3229;42.674;23.282;2023-12-20T04:39:42;94688.16;;;5.33;71.92
6393;BME280;3229;42.674;23.282;2023-12-20T04:42:09;94690.25;;;5.39;71.97
6393;BME280;3229;42.674;23.282;2023-12-20T04:44:35;94695.44;;;5.38;71.93
6393;BME280;3229;42.674;23.282;2023-12-20T04:47:02;94694.63;;;5.37;72.16
6393;BME280;3229;42.674;23.282;2023-12-20T04:49:29;94689.56;;;5.37;72.18
6393;BME280;3229;42.674;23.282;2023-12-20T04:51:56;94682.88;;;5.36;71.66
6393;BME280;3229;42.674;23.282;2023-12-20T04:54:23;94693.03;;;5.36;71.49
6393;BME280;3229;42.674;23.282;2023-12-20T04:56:51;94679.94;;;5.29;71.86
6393;BME280;3229;42.674;23.282;2023-12-20T04:59:17;94685.63;;;5.33;71.91
6393;BME280;3229;42.674;23.282;2023-12-20T05:01:44;94686.63;;;5.31;71.75
6393;BME280;3229;42.674;23.282;2023-12-20T05:04:11;94657.59;;;5.11;71.82
6393;BME280;3229;42.674;23.282;2023-12-20T05:06:38;94652.63;;;5.09;71.79
6393;BME280;3229;42.674;23.282;2023-12-20T05:09:04;94647.06;;;5.04;71.71
6393;BME280;3229;42.674;23.282;2023-12-20T05:11:31;94677.03;;;5.23;71.65
6393;BME280;3229;42.674;23.282;2023-12-20T05:13:59;94677.25;;;5.20;71.64
6393;BME280;3229;42.674;23.282;2023-12-20T05:16:26;94678.25;;;5.17;71.56
6393;BME280;3229;42.674;23.282;2023-12-20T05:18:53;94678.25;;;5.17;71.69
6393;BME280;3229;42.674;23.282;2023-12-20T05:21:20;94681.03;;;5.14;71.62
6393;BME280;3229;42.674;23.282;2023-12-20T05:23:46;94671.78;;;5.13;71.42
6393;BME280;3229;42.674;23.282;2023-12-20T05:26:13;94672.09;;;5.09;71.66
6393;BME280;3229;42.674;23.282;2023-12-20T05:28:40;94672.09;;;5.09;71.83
6393;BME280;3229;42.674;23.282;2023-12-20T05:31:08;94665.41;;;5.08;71.68
6393;BME280;3229;42.674;23.282;2023-12-20T05:33:35;94660.78;;;5.01;71.70
6393;BME280;3229;42.674;23.282;2023-12-20T05:36:02;94667.34;;;5.04;71.84
6393;BME280;3229;42.674;23.282;2023-12-20T05:38:29;94663.31;;;5.01;71.86
6393;BME280;3229;42.674;23.282;2023-12-20T05:40:56;94653.97;;;5.02;71.70
6393;BME280;3229;42.674;23.282;2023-12-20T05:43:23;94665.94;;;5.00;71.87
6393;BME280;3229;42.674;23.282;2023-12-20T05:45:49;94656.72;;;4.99;71.78
6393;BME280;3229;42.674;23.282;2023-12-20T05:48:18;94655.91;;;4.98;71.92
6393;BME280;3229;42.674;23.282;2023-12-20T05:50:44;94650.72;;;5.00;71.81
6393;BME280;3229;42.674;23.282;2023-12-20T05:53:11;94651.53;;;5.00;71.94
6393;BME280;3229;42.674;23.282;2023-12-20T05:55:38;94649.09;;;4.99;71.82
6393;BME280;3229;42.674;23.282;2023-12-20T05:58:05;94642.09;;;5.02;71.77
6393;BME280;3229;42.674;23.282;2023-12-20T06:00:32;94648.66;;;5.05;71.81
6393;BME280;3229;42.674;23.282;2023-12-20T06:02:59;94636.94;;;5.04;71.84
6393;BME280;3229;42.674;23.282;2023-12-20T06:05:27;94641.59;;;5.10;71.96
6393;BME280;3229;42.674;23.282;2023-12-20T06:07:53;94645.63;;;5.13;71.73
6393;BME280;3229;42.674;23.282;2023-12-20T06:10:22;94641.28;;;5.15;71.84
6393;BME280;3229;42.674;23.282;2023-12-20T06:12:48;94640.22;;;5.17;71.71
6393;BME280;3229;42.674;23.282;2023-12-20T06:15:16;94643.38;;;5.21;71.80
6393;BME280;3229;42.674;23.282;2023-12-20T06:17:43;94645.81;;;5.22;71.80
6393;BME280;3229;42.674;23.282;2023-12-20T06:20:10;94609.97;;;5.03;71.78
6393;BME280;3229;42.674;23.282;2023-12-20T06:22:38;94652.19;;;5.28;71.69
6393;BME280;3229;42.674;23.282;2023-12-20T06:25:05;94642.63;;;5.32;71.65
6393;BME280;3229;42.674;23.282;2023-12-20T06:27:32;94647.59;;;5.33;71.44
6393;BME280;3229;42.674;23.282;2023-12-20T06:29:59;94647.06;;;5.41;71.44
6393;BME280;3229;42.674;23.282;2023-12-20T06:32:26;94635.88;;;5.43;71.55
6393;BME280;3229;42.674;23.282;2023-12-20T06:34:54;94651.38;;;5.51;71.53
6393;BME280;3229;42.674;23.282;2023-12-20T06:37:21;94641.69;;;5.57;71.38
6393;BME280;3229;42.674;23.282;2023-12-20T06:39:49;94637.94;;;5.62;71.26
6393;BME280;3229;42.674;23.282;2023-12-20T06:42:16;94641.88;;;5.66;71.35
6393;BME280;3229;42.674;23.282;2023-12-20T06:44:42;94640.75;;;5.70;71.28
6393;BME280;3229;42.674;23.282;2023-12-20T06:47:09;94636.16;;;5.75;71.24
6393;BME280;3229;42.674;23.282;2023-12-20T06:49:36;94634.88;;;5.81;71.13
6393;BME280;3229;42.674;23.282;2023-12-20T06:52:03;94631.09;;;5.87;71.11
6393;BME280;3229;42.674;23.282;2023-12-20T06:54:30;94616.56;;;5.89;70.99
6393;BME280;3229;42.674;23.282;2023-12-20T06:56:58;94626.31;;;5.95;70.98
6393;BME280;3229;42.674;23.282;2023-12-20T06:59:25;94623.53;;;5.98;70.87
6393;BME280;3229;42.674;23.282;2023-12-20T07:01:52;94621.59;;;6.01;70.87
6393;BME280;3229;42.674;23.282;2023-12-20T07:04:19;94613.66;;;6.06;70.70
6393;BME280;3229;42.674;23.282;2023-12-20T07:06:47;94613.31;;;6.11;70.46
6393;BME280;3229;42.674;23.282;2023-12-20T07:09:16;94618.72;;;6.17;70.46
6393;BME280;3229;42.674;23.282;2023-12-20T07:11:43;94617.50;;;6.23;70.47
6393;BME280;3229;42.674;23.282;2023-12-20T07:14:12;94569.78;;;5.93;70.64
6393;BME280;3229;42.674;23.282;2023-12-20T07:16:38;94615.66;;;6.36;70.39
6393;BME280;3229;42.674;23.282;2023-12-20T07:19:05;94611.63;;;6.45;70.27
6393;BME280;3229;42.674;23.282;2023-12-20T07:21:32;94604.34;;;6.51;70.07
6393;BME280;3229;42.674;23.282;2023-12-20T07:23:59;94606.31;;;6.59;70.03
6393;BME280;3229;42.674;23.282;2023-12-20T07:26:26;94606.31;;;6.70;69.87
6393;BME280;3229;42.674;23.282;2023-12-20T07:28:53;94596.59;;;6.75;69.71
6393;BME280;3229;42.674;23.282;2023-12-20T07:31:21;94587.13;;;6.77;69.67
6393;BME280;3229;42.674;23.282;2023-12-20T07:33:49;94588.63;;;6.80;69.55
6393;BME280;3229;42.674;23.282;2023-12-20T07:36:16;94597.72;;;6.94;69.39
6393;BME280;3229;42.674;23.282;2023-12-20T07:38:43;94592.06;;;7.01;69.41
6393;BME280;3229;42.674;23.282;2023-12-20T07:41:10;94595.75;;;7.09;69.19
6393;BME280;3229;42.674;23.282;2023-12-20T07:43:37;94601.28;;;7.14;69.22
6393;BME280;3229;42.674;23.282;2023-12-20T07:46:07;94579.94;;;7.05;69.03
6393;BME280;3229;42.674;23.282;2023-12-20T07:48:36;94578.19;;;7.06;69.28
6393;BME280;3229;42.674;23.282;2023-12-20T07:51:03;94602.75;;;7.16;69.17
6393;BME280;3229;42.674;23.282;2023-12-20T07:53:31;94589.94;;;7.18;69.13
6393;BME280;3229;42.674;23.282;2023-12-20T07:55:58;94570.06;;;7.12;69.13
6393;BME280;3229;42.674;23.282;2023-12-20T07:58:24;94588.53;;;7.25;68.91
6393;BME280;3229;42.674;23.282;2023-12-20T08:00:51;94589.09;;;7.28;69.02
6393;BME280;3229;42.674;23.282;2023-12-20T08:03:18;94571.44;;;7.27;68.74
6393;BME280;3229;42.674;23.282;2023-12-20T08:05:46;94584.44;;;7.34;68.87
6393;BME280;3229;42.674;23.282;2023-12-20T08:08:13;94582.84;;;7.33;68.89
6393;BME280;3229;42.674;23.282;2023-12-20T08:10:39;94579.69;;;7.40;68.69
6393;BME280;3229;42.674;23.282;2023-12-20T08:13:06;94559.84;;;7.34;68.66
6393;BME280;3229;42.674;23.282;2023-12-20T08:15:34;94581.34;;;7.62;68.24
6393;BME280;3229;42.674;23.282;2023-12-20T08:18:00;94573.31;;;7.78;67.95
6393;BME280;3229;42.674;23.282;2023-12-20T08:20:27;94575.53;;;7.92;67.91
6393;BME280;3229;42.674;23.282;2023-12-20T08:22:55;94570.91;;;8.07;67.57
6393;BME280;3229;42.674;23.282;2023-12-20T08:25:22;94571.84;;;8.27;67.28
6393;BME280;3229;42.674;23.282;2023-12-20T08:27:49;94565.00;;;8.48;66.80
6393;BME280;3229;42.674;23.282;2023-12-20T08:30:15;94556.72;;;8.56;66.83
6393;BME280;3229;42.674;23.282;2023-12-20T08:32:46;94554.50;;;8.72;66.75
6393;BME280;3229;42.674;23.282;2023-12-20T08:35:12;94541.84;;;8.71;66.96
6393;BME280;3229;42.674;23.282;2023-12-20T08:37:39;94548.59;;;8.82;66.68
6393;BME280;3229;42.674;23.282;2023-12-20T08:40:08;94546.72;;;8.84;66.91
6393;BME280;3229;42.674;23.282;2023-12-20T08:42:35;94544.56;;;8.89;66.77
6393;BME280;3229;42.674;23.282;2023-12-20T08:45:03;94544.31;;;8.92;66.80
6393;BME280;3229;42.674;23.282;2023-12-20T08:47:30;94531.56;;;8.92;66.91
6393;BME280;3229;42.674;23.282;2023-12-20T08:49:57;94529.28;;;8.89;66.71
6393;BME280;3229;42.674;23.282;2023-12-20T08:52:25;94529.16;;;8.90;66.73
6393;BME280;3229;42.674;23.282;2023-12-20T08:54:52;94536.28;;;8.96;66.75
6393;BME280;3229;42.674;23.282;2023-12-20T08:57:21;94533.47;;;8.99;66.52
6393;BME280;3229;42.674;23.282;2023-12-20T08:59:49;94530.53;;;9.04;66.35
6393;BME280;3229;42.674;23.282;2023-12-20T09:02:16;94520.88;;;9.08;66.60
6393;BME280;3229;42.674;23.282;2023-12-20T09:04:42;94514.81;;;9.09;66.51
6393;BME280;3229;42.674;23.282;2023-12-20T09:07:21;94503.41;;;9.13;66.42
6393;BME280;3229;42.674;23.282;2023-12-20T09:15:38;94482.34;;;9.30;66.30
6393;BME280;3229;42.674;23.282;2023-12-20T09:23:15;94453.72;;;9.46;65.87
6393;BME280;3229;42.674;23.282;2023-12-20T09:25:43;94408.06;;;9.23;65.79
6393;BME280;3229;42.674;23.282;2023-12-20T09:28:10;94451.16;;;9.55;65.81
6393;BME280;3229;42.674;23.282;2023-12-20T09:30:38;94438.91;;;9.59;65.71
6393;BME280;3229;42.674;23.282;2023-12-20T09:33:05;94433.66;;;9.61;65.70
6393;BME280;3229;42.674;23.282;2023-12-20T09:45:59;94356.53;;;9.57;65.15
6393;BME280;3229;42.674;23.282;2023-12-20T09:48:27;94407.72;;;10.02;65.18
6393;BME280;3229;42.674;23.282;2023-12-20T09:50:55;94387.13;;;10.04;65.15
6393;BME280;3229;42.674;23.282;2023-12-20T09:53:22;94392.72;;;10.17;64.90
6393;BME280;3229;42.674;23.282;2023-12-20T09:55:55;94398.47;;;10.29;64.44
6393;BME280;3229;42.674;23.282;2023-12-20T09:58:24;94393.47;;;10.37;64.55
6393;BME280;3229;42.674;23.282;2023-12-20T10:00:54;94373.94;;;10.36;64.45
6393;BME280;3229;42.674;23.282;2023-12-20T10:03:24;94394.91;;;10.58;64.06
6393;BME280;3229;42.674;23.282;2023-12-20T10:05:54;94386.25;;;10.68;64.08
6393;BME280;3229;42.674;23.282;2023-12-20T10:08:24;94377.84;;;10.76;64.11
6393;BME280;3229;42.674;23.282;2023-12-20T10:10:51;94382.78;;;10.95;63.72
6393;BME280;3229;42.674;23.282;2023-12-20T10:13:18;94354.00;;;10.93;63.43
6393;BME280;3229;42.674;23.282;2023-12-20T10:15:44;94371.63;;;11.22;63.37
6393;BME280;3229;42.674;23.282;2023-12-20T10:18:13;94338.63;;;11.11;62.93
6393;BME280;3229;42.674;23.282;2023-12-20T10:20:40;94369.94;;;11.31;63.23
6393;BME280;3229;42.674;23.282;2023-12-20T10:23:07;94359.06;;;11.29;63.24
6393;BME280;3229;42.674;23.282;2023-12-20T10:25:34;94324.38;;;11.09;63.49
6393;BME280;3229;42.674;23.282;2023-12-20T10:28:11;94346.50;;;11.18;63.50
6393;BME280;3229;42.674;23.282;2023-12-20T10:30:39;94340.94;;;11.22;63.26
6393;BME280;3229;42.674;23.282;2023-12-20T10:33:06;94341.13;;;11.29;62.99
6393;BME280;3229;42.674;23.282;2023-12-20T10:35:35;94309.06;;;11.17;62.81
6393;BME280;3229;42.674;23.282;2023-12-20T10:38:04;94326.97;;;11.43;62.86
6393;BME280;3229;42.674;23.282;2023-12-20T10:40:31;94319.00;;;11.46;62.63
6393;BME280;3229;42.674;23.282;2023-12-20T10:43:02;94317.41;;;11.45;62.63
6393;BME280;3229;42.674;23.282;2023-12-20T10:45:29;94318.38;;;11.52;62.58
6393;BME280;3229;42.674;23.282;2023-12-20T10:47:57;94306.38;;;11.52;62.32
6393;BME280;3229;42.674;23.282;2023-12-20T10:50:26;94298.81;;;11.43;62.39
6393;BME280;3229;42.674;23.282;2023-12-20T10:52:55;94306.88;;;11.56;62.50
6393;BME280;3229;42.674;23.282;2023-12-20T10:55:22;94294.75;;;11.58;62.10
6393;BME280;3229;42.674;23.282;2023-12-20T10:57:49;94303.56;;;11.64;62.18
6393;BME280;3229;42.674;23.282;2023-12-20T11:00:18;94284.88;;;11.71;61.90
6393;BME280;3229;42.674;23.282;2023-12-20T11:02:45;94259.66;;;11.50;61.90
6393;BME280;3229;42.674;23.282;2023-12-20T11:05:23;94268.03;;;11.69;62.16
6393;BME280;3229;42.674;23.282;2023-12-20T11:07:57;94278.28;;;11.69;62.02
6393;BME280;3229;42.674;23.282;2023-12-20T11:10:28;94278.28;;;11.69;61.86
6393;BME280;3229;42.674;23.282;2023-12-20T11:13:00;94269.63;;;11.70;62.05
6393;BME280;3229;42.674;23.282;2023-12-20T11:15:30;94266.44;;;11.68;61.86
6393;BME280;3229;42.674;23.282;2023-12-20T11:17:57;94260.84;;;11.72;61.86
6393;BME280;3229;42.674;23.282;2023-12-20T11:20:35;94260.06;;;11.72;61.84
6393;BME280;3229;42.674;23.282;2023-12-20T11:23:04;94236.81;;;11.65;61.67
6393;BME280;3229;42.674;23.282;2023-12-20T11:25:48;94242.13;;;11.72;61.72
6393;BME280;3229;42.674;23.282;2023-12-20T11:28:15;94246.28;;;11.73;61.68
6393;BME280;3229;42.674;23.282;2023-12-20T11:30:47;94241.03;;;11.74;61.64
6393;BME280;3229;42.674;23.282;2023-12-20T11:33:14;94222.91;;;11.76;61.56
6393;BME280;3229;42.674;23.282;2023-12-20T11:35:42;94221.16;;;11.76;61.42
6393;BME280;3229;42.674;23.282;2023-12-20T11:38:10;94198.72;;;11.62;61.48
6393;BME280;3229;42.674;23.282;2023-12-20T11:40:37;94212.50;;;11.77;61.43
6393;BME280;3229;42.674;23.282;2023-12-20T11:43:04;94192.81;;;11.78;61.24
6393;BME280;3229;42.674;23.282;2023-12-20T11:45:31;94181.59;;;11.63;61.19
6393;BME280;3229;42.674;23.282;2023-12-20T11:47:58;94197.78;;;11.79;61.24
6393;BME280;3229;42.674;23.282;2023-12-20T11:50:25;94190.75;;;11.81;61.24
6393;BME280;3229;42.674;23.282;2023-12-20T11:52:54;94181.13;;;11.75;61.11
6393;BME280;3229;42.674;23.282;2023-12-20T11:55:23;94182.13;;;11.83;61.00
6393;BME280;3229;42.674;23.282;2023-12-20T11:57:50;94152.47;;;11.72;60.92
6393;BME280;3229;42.674;23.282;2023-12-20T12:00:18;94169.00;;;11.86;60.95
6393;BME280;3229;42.674;23.282;2023-12-20T12:02:55;94161.81;;;11.89;60.87
6393;BME280;3229;42.674;23.282;2023-12-20T12:05:22;94153.66;;;11.94;60.93
6393;BME280;3229;42.674;23.282;2023-12-20T12:07:48;94145.47;;;11.98;60.82
6393;BME280;3229;42.674;23.282;2023-12-20T12:10:15;94141.47;;;12.04;60.77
6393;BME280;3229;42.674;23.282;2023-12-20T12:12:44;94142.59;;;12.10;60.75
6393;BME280;3229;42.674;23.282;2023-12-20T12:15:10;94128.03;;;12.10;60.78
6393;BME280;3229;42.674;23.282;2023-12-20T12:17:38;94128.50;;;12.14;60.61
6393;BME280;3229;42.674;23.282;2023-12-20T12:20:06;94129.63;;;12.19;60.64
6393;BME280;3229;42.674;23.282;2023-12-20T12:22:33;94124.19;;;12.22;60.68
6393;BME280;3229;42.674;23.282;2023-12-20T12:25:10;94117.13;;;12.24;60.67
6393;BME280;3229;42.674;23.282;2023-12-20T12:27:39;94113.44;;;12.27;60.62
6393;BME280;3229;42.674;23.282;2023-12-20T12:30:09;94104.47;;;12.23;60.54
6393;BME280;3229;42.674;23.282;2023-12-20T12:32:38;94111.03;;;12.25;60.62
6393;BME280;3229;42.674;23.282;2023-12-20T12:35:06;94115.22;;;12.26;60.74
6393;BME280;3229;42.674;23.282;2023-12-20T12:37:34;94077.09;;;11.99;60.70
6393;BME280;3229;42.674;23.282;2023-12-20T12:40:03;94121.13;;;12.27;60.78
6393;BME280;3229;42.674;23.282;2023-12-20T12:42:30;94123.69;;;12.27;60.80
6393;BME280;3229;42.674;23.282;2023-12-20T12:44:57;94106.56;;;12.19;60.77
6393;BME280;3229;42.674;23.282;2023-12-20T12:47:25;94113.13;;;12.22;60.85
6393;BME280;3229;42.674;23.282;2023-12-20T12:49:52;94089.72;;;12.09;60.97
6393;BME280;3229;42.674;23.282;2023-12-20T12:52:19;94106.72;;;12.10;60.89
6393;BME280;3229;42.674;23.282;2023-12-20T12:54:46;94108.63;;;12.08;60.88
6393;BME280;3229;42.674;23.282;2023-12-20T12:57:14;94104.31;;;12.00;61.11
6393;BME280;3229;42.674;23.282;2023-12-20T12:59:41;94106.91;;;11.92;61.19
6393;BME280;3229;42.674;23.282;2023-12-20T13:02:09;94071.47;;;11.63;61.13
6393;BME280;3229;42.674;23.282;2023-12-20T13:04:37;94106.09;;;11.83;61.22
6393;BME280;3229;42.674;23.282;2023-12-20T13:07:04;94103.81;;;11.80;61.29
6393;BME280;3229;42.674;23.282;2023-12-20T13:09:31;94091.31;;;11.69;61.51
6393;BME280;3229;42.674;23.282;2023-12-20T13:11:58;94096.59;;;11.67;61.63
6393;BME280;3229;42.674;23.282;2023-12-20T13:14:25;94075.09;;;11.44;61.70
6393;BME280;3229;42.674;23.282;2023-12-20T13:16:52;94098.97;;;11.52;61.80
6393;BME280;3229;42.674;23.282;2023-12-20T13:19:18;94090.81;;;11.41;62.11
6393;BME280;3229;42.674;23.282;2023-12-20T13:21:46;94092.88;;;11.37;62.01
6393;BME280;3229;42.674;23.282;2023-12-20T13:24:14;94066.75;;;11.17;62.19
6393;BME280;3229;42.674;23.282;2023-12-20T13:26:41;94081.31;;;11.17;62.20
6393;BME280;3229;42.674;23.282;2023-12-20T13:29:07;94090.75;;;11.16;62.45
6393;BME280;3229;42.674;23.282;2023-12-20T13:31:34;94081.16;;;11.10;62.50
6393;BME280;3229;42.674;23.282;2023-12-20T13:34:02;94076.13;;;11.00;62.53
6393;BME280;3229;42.674;23.282;2023-12-20T13:36:29;94083.19;;;10.98;62.79
6393;BME280;3229;42.674;23.282;2023-12-20T13:38:57;94079.31;;;10.94;62.90
6393;BME280;3229;42.674;23.282;2023-12-20T13:41:24;94075.47;;;10.90;63.00
6393;BME280;3229;42.674;23.282;2023-12-20T13:43:51;94082.16;;;10.83;62.94